Time;durP1;ratioP1;P1;durP2;ratioP2;P2;SDS_P1;SDS_P2;PMS_P1;PMS_P2;Temp;Humidity;BMP_temperature;BMP_pressure;BME280_temperature;BME280_humidity;BME280_pressure;Samples;Min_cycle;Max_cycle;Signal;HPM_P1;HPM_P2
2021/03/17 00:00:00;;;;;;;11.25;10.15;;;;;;;;;;2107058;28;20416;-83
2021/03/17 00:01:06;;;;;;;12.38;11.27;;;;;;;;;;2115121;28;20434;-82
2021/03/17 00:02:07;;;;;;;12.05;10.95;;;;;;;;;;2114938;28;20443;-82
2021/03/17 00:03:10;;;;;;;13.00;11.65;;;;;;;;;;2106721;28;20391;-82
2021/03/17 00:04:11;;;;;;;12.63;11.43;;;;;;;;;;2107185;28;20407;-82
2021/03/17 00:05:14;;;;;;;13.30;12.00;;;;;;;;;;2118666;28;20426;-82
2021/03/17 00:06:15;;;;;;;12.82;11.52;;;;;;;;;;2126606;27;20924;-83
2021/03/17 00:07:16;;;;;;;14.40;13.00;;;;;;;;;;2125135;27;20399;-83
2021/03/17 00:08:19;;;;;;;13.93;12.52;;;;;;;;;;2132566;27;20388;-82
2021/03/17 00:09:22;;;;;;;13.65;12.30;;;;;;;;;;2132238;27;20467;-82
2021/03/17 00:10:25;;;;;;;13.68;12.38;;;;;;;;;;2115734;28;20405;-82
2021/03/17 00:11:26;;;;;;;13.60;12.30;;;;;;;;;;2115761;27;20405;-82
2021/03/17 00:12:34;;;;;;;14.25;12.85;;;;;;;;;;2124152;27;20476;-82
2021/03/17 00:13:37;;;;;;;13.38;12.07;;;;;;;;;;2124375;27;20463;-82
2021/03/17 00:14:38;;;;;;;14.90;13.40;;;;;;;;;;2124291;27;20512;-82
2021/03/17 00:15:42;;;;;;;15.32;13.82;;;;;;;;;;2124280;27;20420;-82
2021/03/17 00:16:43;;;;;;;14.73;13.23;;;;;;;;;;2124145;27;20431;-82
2021/03/17 00:17:45;;;;;;;14.70;13.20;;;;;;;;;;2114859;28;20412;-82
2021/03/17 00:18:46;;;;;;;15.48;13.90;;;;;;;;;;2115096;27;20440;-82
2021/03/17 00:19:48;;;;;;;15.80;14.30;;;;;;;;;;2114875;28;20481;-82
2021/03/17 00:20:52;;;;;;;16.88;15.07;;;;;;;;;;2115903;27;20390;-82
2021/03/17 00:21:53;;;;;;;14.80;13.30;;;;;;;;;;2114929;28;20424;-83
2021/03/17 00:22:56;;;;;;;15.43;14.02;;;;;;;;;;2106601;28;20491;-83
2021/03/17 00:23:57;;;;;;;16.23;14.52;;;;;;;;;;2107100;28;20415;-83
2021/03/17 00:24:58;;;;;;;15.50;13.85;;;;;;;;;;2106512;28;20729;-84
2021/03/17 00:26:00;;;;;;;18.15;14.35;;;;;;;;;;2098386;28;20404;-83
2021/03/17 00:27:02;;;;;;;14.75;13.25;;;;;;;;;;2098127;28;21512;-84
2021/03/17 00:28:04;;;;;;;16.40;14.70;;;;;;;;;;2098829;28;20440;-84
2021/03/17 00:29:05;;;;;;;15.93;14.25;;;;;;;;;;2114750;28;20400;-83
2021/03/17 00:30:07;;;;;;;16.45;14.43;;;;;;;;;;2115100;28;20729;-83
2021/03/17 00:31:08;;;;;;;15.27;13.68;;;;;;;;;;2116673;28;20401;-83
2021/03/17 00:32:09;;;;;;;17.80;15.85;;;;;;;;;;2117765;27;20440;-83
2021/03/17 00:33:12;;;;;;;16.25;14.63;;;;;;;;;;2123588;27;20415;-82
2021/03/17 00:34:13;;;;;;;17.05;15.30;;;;;;;;;;2114940;28;20401;-82
2021/03/17 00:35:15;;;;;;;19.77;16.33;;;;;;;;;;2098272;28;20413;-83
2021/03/17 00:36:16;;;;;;;17.73;14.98;;;;;;;;;;2098479;28;20587;-82
2021/03/17 00:37:18;;;;;;;15.98;14.38;;;;;;;;;;2106269;28;20988;-82
2021/03/17 00:38:20;;;;;;;16.63;14.82;;;;;;;;;;2098250;28;20542;-82
2021/03/17 00:39:22;;;;;;;15.93;14.20;;;;;;;;;;2106944;28;20875;-82
2021/03/17 00:40:24;;;;;;;16.45;14.63;;;;;;;;;;2123925;27;20408;-83
2021/03/17 00:41:26;;;;;;;14.20;12.68;;;;;;;;;;2123979;27;20565;-82
2021/03/17 00:42:27;;;;;;;15.57;12.95;;;;;;;;;;2106208;28;20419;-83
2021/03/17 00:43:28;;;;;;;14.63;13.13;;;;;;;;;;2098228;28;20897;-82
2021/03/17 00:44:29;;;;;;;15.32;11.95;;;;;;;;;;2106369;28;20867;-82
2021/03/17 00:45:31;;;;;;;14.45;12.85;;;;;;;;;;2114712;28;20385;-83
2021/03/17 00:46:33;;;;;;;13.55;12.15;;;;;;;;;;2123783;27;20796;-82
2021/03/17 00:47:34;;;;;;;12.23;10.90;;;;;;;;;;2115396;28;20880;-82
2021/03/17 00:48:35;;;;;;;11.43;10.23;;;;;;;;;;2115407;28;20414;-83
2021/03/17 00:49:37;;;;;;;12.20;10.88;;;;;;;;;;2106337;28;20399;-82
2021/03/17 00:50:38;;;;;;;11.82;9.85;;;;;;;;;;2106967;28;20429;-82
2021/03/17 00:51:39;;;;;;;9.57;8.32;;;;;;;;;;2115314;28;20897;-82
2021/03/17 00:52:41;;;;;;;10.32;9.32;;;;;;;;;;2106916;28;20403;-82
2021/03/17 00:53:43;;;;;;;12.02;9.18;;;;;;;;;;2106775;28;20423;-83
2021/03/17 00:54:44;;;;;;;10.05;8.95;;;;;;;;;;2106954;28;20479;-82
2021/03/17 00:55:45;;;;;;;10.07;7.80;;;;;;;;;;2115402;28;20434;-82
2021/03/17 00:56:48;;;;;;;10.70;8.57;;;;;;;;;;2116709;27;20754;-82
2021/03/17 00:57:49;;;;;;;7.85;7.05;;;;;;;;;;2115145;28;20418;-82
2021/03/17 00:58:51;;;;;;;7.43;6.00;;;;;;;;;;2106630;28;20477;-82
2021/03/17 00:59:52;;;;;;;7.20;6.40;;;;;;;;;;2115021;28;20414;-82
2021/03/17 01:00:53;;;;;;;8.85;5.63;;;;;;;;;;2106592;28;20439;-82
2021/03/17 01:01:54;;;;;;;8.43;6.80;;;;;;;;;;2098707;28;20413;-82
2021/03/17 01:02:56;;;;;;;6.28;5.63;;;;;;;;;;2099675;28;20407;-83
2021/03/17 01:03:57;;;;;;;7.60;6.00;;;;;;;;;;2108844;28;20474;-82
2021/03/17 01:04:58;;;;;;;9.05;6.20;;;;;;;;;;2110001;28;20403;-82
2021/03/17 01:05:59;;;;;;;8.70;5.03;;;;;;;;;;2121344;28;20401;-82
2021/03/17 01:07:01;;;;;;;7.05;4.95;;;;;;;;;;2123184;28;20390;-82
2021/03/17 01:08:02;;;;;;;6.05;5.30;;;;;;;;;;2122815;28;20390;-83
2021/03/17 01:09:04;;;;;;;7.05;5.00;;;;;;;;;;2122437;28;20409;-82
2021/03/17 01:10:34;;;;;;;7.50;4.65;;;;;;;;;;2113522;28;20471;-82
2021/03/17 01:11:35;;;;;;;4.93;3.40;;;;;;;;;;2114452;28;20399;-82
2021/03/17 01:12:37;;;;;;;3.65;3.15;;;;;;;;;;2123670;28;20438;-82
2021/03/17 01:13:40;;;;;;;3.92;3.00;;;;;;;;;;2123643;28;20778;-82
2021/03/17 01:14:43;;;;;;;5.60;2.10;;;;;;;;;;2114685;28;20734;-82
2021/03/17 01:15:45;;;;;;;3.83;1.80;;;;;;;;;;2107652;28;20415;-82
2021/03/17 01:16:46;;;;;;;3.58;1.60;;;;;;;;;;2114921;28;20527;-83
2021/03/17 01:17:48;;;;;;;2.40;1.65;;;;;;;;;;2123590;28;20437;-82
2021/03/17 01:18:50;;;;;;;3.70;1.10;;;;;;;;;;2123691;28;20482;-82
2021/03/17 01:19:51;;;;;;;2.13;0.98;;;;;;;;;;2123424;28;20388;-83
2021/03/17 01:20:52;;;;;;;2.72;0.90;;;;;;;;;;2106194;28;20399;-83
2021/03/17 01:21:53;;;;;;;1.20;0.77;;;;;;;;;;2097713;28;20412;-83
2021/03/17 01:22:56;;;;;;;2.38;0.90;;;;;;;;;;2098454;28;20416;-83
2021/03/17 01:23:57;;;;;;;1.95;0.70;;;;;;;;;;2107011;28;20403;-84
2021/03/17 01:24:58;;;;;;;3.20;1.40;;;;;;;;;;2124258;28;20388;-83
2021/03/17 01:25:59;;;;;;;1.60;0.70;;;;;;;;;;2123898;28;20430;-83
2021/03/17 01:27:01;;;;;;;2.13;0.52;;;;;;;;;;2114824;28;20389;-83
2021/03/17 01:28:04;;;;;;;2.60;0.95;;;;;;;;;;2114858;28;20398;-83
2021/03/17 01:29:05;;;;;;;2.78;0.43;;;;;;;;;;2124151;28;20408;-83
2021/03/17 01:30:07;;;;;;;2.50;0.50;;;;;;;;;;2123975;28;20875;-84
2021/03/17 01:31:08;;;;;;;5.30;0.68;;;;;;;;;;2115436;28;20401;-83
2021/03/17 01:32:10;;;;;;;2.28;0.40;;;;;;;;;;2114892;28;20398;-82
2021/03/17 01:33:12;;;;;;;2.30;0.40;;;;;;;;;;2128033;28;20400;-82
2021/03/17 01:34:13;;;;;;;1.83;0.40;;;;;;;;;;2123945;28;20388;-82
2021/03/17 01:35:15;;;;;;;1.15;0.45;;;;;;;;;;2123728;28;20388;-82
2021/03/17 01:36:16;;;;;;;1.60;0.40;;;;;;;;;;2105912;28;20986;-82
2021/03/17 01:37:18;;;;;;;3.05;0.40;;;;;;;;;;2106359;28;20404;-83
2021/03/17 01:38:20;;;;;;;2.47;0.70;;;;;;;;;;2114198;28;20961;-82
2021/03/17 01:39:22;;;;;;;4.38;0.80;;;;;;;;;;2097745;28;20478;-82
2021/03/17 01:40:24;;;;;;;4.90;0.80;;;;;;;;;;2106328;28;20522;-83
2021/03/17 01:41:25;;;;;;;2.20;1.08;;;;;;;;;;2123321;28;20806;-83
2021/03/17 01:42:26;;;;;;;1.67;0.35;;;;;;;;;;2123325;28;20427;-83
2021/03/17 01:43:38;;;;;;;0.77;0.40;;;;;;;;;;2114789;28;20469;-83
2021/03/17 01:44:39;;;;;;;3.42;0.40;;;;;;;;;;2116124;28;20417;-82
2021/03/17 01:45:42;;;;;;;1.55;0.43;;;;;;;;;;2123244;28;20403;-83
2021/03/17 01:46:44;;;;;;;2.10;0.40;;;;;;;;;;2114775;28;20451;-83
2021/03/17 01:47:47;;;;;;;3.85;0.77;;;;;;;;;;2114841;28;20394;-83
2021/03/17 01:48:49;;;;;;;3.70;0.60;;;;;;;;;;2114855;28;20408;-83
2021/03/17 01:49:50;;;;;;;2.13;0.30;;;;;;;;;;2106662;28;20475;-82
2021/03/17 01:50:55;;;;;;;3.60;0.40;;;;;;;;;;2105942;28;20387;-82
2021/03/17 01:51:56;;;;;;;3.00;0.50;;;;;;;;;;2114890;28;20799;-82
2021/03/17 01:53:06;;;;;;;2.60;0.40;;;;;;;;;;2114235;28;20489;-82
2021/03/17 01:54:07;;;;;;;1.58;0.40;;;;;;;;;;2116080;28;20452;-81
2021/03/17 01:55:10;;;;;;;1.63;0.50;;;;;;;;;;2123764;28;20393;-82
2021/03/17 01:56:11;;;;;;;2.90;0.40;;;;;;;;;;2114376;28;20428;-82
2021/03/17 01:57:13;;;;;;;3.00;0.50;;;;;;;;;;2114568;28;20405;-83
2021/03/17 01:58:14;;;;;;;1.95;0.50;;;;;;;;;;2116766;28;20425;-82
2021/03/17 01:59:16;;;;;;;4.00;0.65;;;;;;;;;;2125167;28;20407;-83
2021/03/17 02:00:19;;;;;;;2.00;0.60;;;;;;;;;;2115951;28;20401;-83
2021/03/17 02:01:20;;;;;;;2.42;0.65;;;;;;;;;;2099012;28;20400;-83
2021/03/17 02:02:23;;;;;;;3.45;0.68;;;;;;;;;;2091968;28;20403;-84
2021/03/17 02:03:26;;;;;;;3.85;0.40;;;;;;;;;;2108124;28;20398;-82
2021/03/17 02:04:27;;;;;;;2.05;0.43;;;;;;;;;;2115724;28;20776;-82
2021/03/17 02:05:41;;;;;;;2.30;0.45;;;;;;;;;;2107433;28;20396;-82
2021/03/17 02:06:43;;;;;;;2.03;0.30;;;;;;;;;;2115682;28;20425;-82
2021/03/17 02:07:44;;;;;;;3.20;1.00;;;;;;;;;;2119025;28;20429;-83
2021/03/17 02:08:46;;;;;;;4.70;0.40;;;;;;;;;;2121296;28;20812;-83
2021/03/17 02:09:48;;;;;;;1.92;0.40;;;;;;;;;;2118259;28;20406;-83
2021/03/17 02:10:50;;;;;;;2.58;0.60;;;;;;;;;;2107876;28;20403;-82
2021/03/17 02:12:01;;;;;;;1.90;0.50;;;;;;;;;;2100196;28;20408;-82
2021/03/17 02:13:23;;;;;;;3.97;0.50;;;;;;;;;;2116526;28;20456;-82
2021/03/17 02:15:19;;;;;;;1.90;0.60;;;;;;;;;;2116833;28;20488;-82
2021/03/17 02:16:29;;;;;;;2.70;0.82;;;;;;;;;;2099070;28;20452;-82
2021/03/17 02:17:34;;;;;;;1.85;0.40;;;;;;;;;;2090769;28;20489;-82
2021/03/17 02:18:54;;;;;;;2.95;0.32;;;;;;;;;;2106581;28;20397;-82
2021/03/17 02:20:28;;;;;;;3.33;0.60;;;;;;;;;;2117623;28;20813;-82
2021/03/17 02:22:17;;;;;;;4.82;0.50;;;;;;;;;;2118985;28;20394;-81
2021/03/17 02:23:28;;;;;;;2.50;0.40;;;;;;;;;;2098663;28;20805;-82
2021/03/17 02:24:35;;;;;;;1.38;0.50;;;;;;;;;;2105860;28;20466;-82
2021/03/17 02:26:09;;;;;;;2.22;0.63;;;;;;;;;;2108595;28;20396;-82
2021/03/17 02:27:22;;;;;;;2.90;0.40;;;;;;;;;;2112624;28;20397;-82
2021/03/17 02:28:46;;;;;;;2.67;0.60;;;;;;;;;;2109638;28;20434;-82
2021/03/17 02:30:15;;;;;;;3.63;0.43;;;;;;;;;;2116891;28;20390;-82
2021/03/17 02:32:01;;;;;;;2.42;0.50;;;;;;;;;;2118753;28;20382;-83
2021/03/17 02:33:40;;;;;;;4.07;0.60;;;;;;;;;;2109519;28;20448;-82
2021/03/17 02:34:44;;;;;;;3.30;0.40;;;;;;;;;;2083071;28;20408;-82
2021/03/17 02:35:52;;;;;;;1.70;0.52;;;;;;;;;;2085211;28;20412;-82
2021/03/17 02:36:58;;;;;;;2.00;0.73;;;;;;;;;;2101791;27;21024;-82
2021/03/17 02:38:03;;;;;;;1.30;0.50;;;;;;;;;;2120074;28;20398;-83
2021/03/17 02:39:27;;;;;;;6.40;0.90;;;;;;;;;;2117848;28;20398;-82
2021/03/17 02:40:33;;;;;;;1.60;0.57;;;;;;;;;;2119690;28;20821;-82
2021/03/17 02:41:52;;;;;;;3.95;0.70;;;;;;;;;;2120116;28;20457;-83
2021/03/17 02:43:09;;;;;;;3.90;0.40;;;;;;;;;;2120593;28;20436;-84
2021/03/17 02:44:22;;;;;;;1.95;0.60;;;;;;;;;;2122072;28;20583;-83
2021/03/17 02:45:28;;;;;;;3.95;0.88;;;;;;;;;;2121120;28;20394;-83
2021/03/17 02:46:30;;;;;;;5.20;0.95;;;;;;;;;;2122096;28;20394;-83
2021/03/17 02:47:36;;;;;;;3.63;0.70;;;;;;;;;;2113061;28;20472;-83
2021/03/17 02:48:44;;;;;;;2.92;0.60;;;;;;;;;;2106780;28;20396;-83
2021/03/17 02:49:48;;;;;;;10.20;0.70;;;;;;;;;;2121386;28;20513;-83
2021/03/17 02:50:54;;;;;;;4.60;0.73;;;;;;;;;;2121715;28;20401;-83
2021/03/17 02:51:59;;;;;;;4.25;0.57;;;;;;;;;;2114614;28;20406;-84
2021/03/17 02:53:02;;;;;;;4.15;0.88;;;;;;;;;;2122218;28;20397;-84
2021/03/17 02:54:07;;;;;;;4.57;0.55;;;;;;;;;;2121102;28;20386;-83
2021/03/17 02:55:10;;;;;;;5.40;0.85;;;;;;;;;;2118705;28;20401;-83
2021/03/17 02:56:13;;;;;;;4.10;0.65;;;;;;;;;;2119155;28;20449;-84
2021/03/17 02:57:18;;;;;;;6.80;0.77;;;;;;;;;;2115878;28;20872;-83
2021/03/17 02:58:21;;;;;;;2.13;0.60;;;;;;;;;;2116253;28;20401;-83
2021/03/17 02:59:24;;;;;;;2.58;0.55;;;;;;;;;;2116051;28;20873;-83
2021/03/17 03:00:28;;;;;;;3.67;0.80;;;;;;;;;;2116228;28;20473;-82
2021/03/17 03:01:31;;;;;;;2.67;0.80;;;;;;;;;;2115181;28;20494;-82
2021/03/17 03:02:34;;;;;;;3.33;0.60;;;;;;;;;;2107332;28;20395;-83
2021/03/17 03:03:36;;;;;;;2.90;0.90;;;;;;;;;;2115477;28;20426;-83
2021/03/17 03:04:41;;;;;;;3.72;0.55;;;;;;;;;;2115947;28;20477;-83
2021/03/17 03:05:45;;;;;;;7.45;0.70;;;;;;;;;;2116394;28;20482;-82
2021/03/17 03:06:48;;;;;;;5.38;0.70;;;;;;;;;;2116068;28;20481;-82
2021/03/17 03:07:52;;;;;;;2.72;0.50;;;;;;;;;;2107216;28;20438;-83
2021/03/17 03:08:53;;;;;;;2.40;0.68;;;;;;;;;;2107647;28;20908;-84
2021/03/17 03:09:55;;;;;;;5.60;0.90;;;;;;;;;;2116857;28;20403;-82
2021/03/17 03:10:58;;;;;;;8.10;1.10;;;;;;;;;;2120270;28;20394;-82
2021/03/17 03:12:00;;;;;;;5.38;0.70;;;;;;;;;;2101780;28;20406;-83
2021/03/17 03:13:03;;;;;;;5.00;0.93;;;;;;;;;;2107744;28;20457;-82
2021/03/17 03:14:05;;;;;;;5.97;0.65;;;;;;;;;;2115364;28;20406;-82
2021/03/17 03:15:08;;;;;;;3.85;1.00;;;;;;;;;;2115325;28;20401;-83
2021/03/17 03:16:12;;;;;;;9.85;0.80;;;;;;;;;;2115643;28;20437;-83
2021/03/17 03:17:14;;;;;;;8.57;0.90;;;;;;;;;;2115323;28;20398;-83
2021/03/17 03:18:16;;;;;;;6.27;0.80;;;;;;;;;;2107009;28;20414;-83
2021/03/17 03:19:18;;;;;;;5.10;0.80;;;;;;;;;;2107080;28;20399;-83
2021/03/17 03:20:22;;;;;;;4.80;0.60;;;;;;;;;;2115560;28;20426;-83
2021/03/17 03:21:26;;;;;;;5.35;0.85;;;;;;;;;;2107727;28;20410;-82
2021/03/17 03:22:28;;;;;;;5.82;0.75;;;;;;;;;;2115107;28;20454;-83
2021/03/17 03:23:31;;;;;;;5.85;0.80;;;;;;;;;;2115574;28;20906;-83
2021/03/17 03:24:33;;;;;;;4.57;1.27;;;;;;;;;;2115828;28;20411;-82
2021/03/17 03:25:35;;;;;;;6.20;0.77;;;;;;;;;;2106786;28;20399;-82
2021/03/17 03:26:36;;;;;;;4.40;0.70;;;;;;;;;;2098843;28;20795;-82
2021/03/17 03:27:38;;;;;;;6.20;0.90;;;;;;;;;;2114871;28;20409;-82
2021/03/17 03:28:40;;;;;;;5.40;0.90;;;;;;;;;;2115207;28;20396;-82
2021/03/17 03:29:42;;;;;;;6.43;0.80;;;;;;;;;;2098391;28;20389;-82
2021/03/17 03:30:46;;;;;;;4.95;0.75;;;;;;;;;;2098739;28;20400;-81
2021/03/17 03:31:48;;;;;;;3.95;1.15;;;;;;;;;;2114957;28;20908;-82
2021/03/17 03:32:49;;;;;;;5.80;0.90;;;;;;;;;;2115066;28;20895;-82
2021/03/17 03:33:51;;;;;;;3.25;0.82;;;;;;;;;;2107100;28;20499;-82
2021/03/17 03:34:52;;;;;;;5.38;0.55;;;;;;;;;;2115190;28;20845;-82
2021/03/17 03:35:53;;;;;;;7.55;1.00;;;;;;;;;;2100821;28;20923;-82
2021/03/17 03:36:55;;;;;;;5.47;1.25;;;;;;;;;;2107386;28;20502;-82
2021/03/17 03:37:56;;;;;;;5.82;1.00;;;;;;;;;;2115689;28;20405;-82
2021/03/17 03:38:59;;;;;;;4.10;1.10;;;;;;;;;;2115102;28;20435;-82
2021/03/17 03:40:05;;;;;;;6.35;1.50;;;;;;;;;;2107275;28;20482;-82
2021/03/17 03:41:07;;;;;;;3.83;1.02;;;;;;;;;;2115514;28;20394;-82
2021/03/17 03:42:08;;;;;;;5.40;0.88;;;;;;;;;;2115377;28;20822;-82
2021/03/17 03:43:11;;;;;;;2.83;0.70;;;;;;;;;;2115214;28;20389;-82
2021/03/17 03:44:12;;;;;;;4.30;1.13;;;;;;;;;;2106897;28;20483;-82
2021/03/17 03:45:17;;;;;;;5.22;0.90;;;;;;;;;;2106985;28;20400;-82
2021/03/17 03:46:18;;;;;;;4.32;0.90;;;;;;;;;;2115021;28;20430;-82
2021/03/17 03:47:20;;;;;;;4.55;0.80;;;;;;;;;;2115627;28;20409;-82
2021/03/17 03:48:22;;;;;;;1.83;0.70;;;;;;;;;;2115322;28;20454;-82
2021/03/17 03:49:23;;;;;;;6.05;0.77;;;;;;;;;;2114978;28;20398;-82
2021/03/17 03:50:27;;;;;;;3.63;1.00;;;;;;;;;;2107000;28;20477;-82
2021/03/17 03:51:31;;;;;;;1.85;0.57;;;;;;;;;;2099489;28;20413;-83
2021/03/17 03:52:40;;;;;;;7.38;1.55;;;;;;;;;;2098475;28;20416;-82
2021/03/17 03:53:49;;;;;;;5.32;1.10;;;;;;;;;;2100999;28;20389;-82
2021/03/17 03:55:03;;;;;;;4.45;1.10;;;;;;;;;;2115223;28;20390;-82
2021/03/17 03:56:19;;;;;;;5.50;1.08;;;;;;;;;;2115317;28;20394;-82
2021/03/17 03:57:41;;;;;;;3.75;1.02;;;;;;;;;;2114931;28;20393;-83
2021/03/17 03:58:47;;;;;;;3.15;1.00;;;;;;;;;;2106618;28;20423;-83
2021/03/17 03:59:55;;;;;;;5.50;0.98;;;;;;;;;;2100039;28;20397;-82
2021/03/17 04:01:04;;;;;;;3.28;0.80;;;;;;;;;;2114658;28;20417;-82
2021/03/17 04:02:08;;;;;;;3.13;0.70;;;;;;;;;;2114960;28;20929;-82
2021/03/17 04:03:13;;;;;;;2.87;0.53;;;;;;;;;;2115200;28;20439;-82
2021/03/17 04:04:17;;;;;;;2.28;0.40;;;;;;;;;;2115178;28;20397;-82
2021/03/17 04:05:22;;;;;;;3.30;0.50;;;;;;;;;;2114826;28;20452;-82
2021/03/17 04:06:24;;;;;;;2.53;0.40;;;;;;;;;;2115729;28;20426;-82
2021/03/17 04:07:26;;;;;;;4.20;0.50;;;;;;;;;;2115329;28;20444;-82
2021/03/17 04:08:29;;;;;;;3.55;0.40;;;;;;;;;;2115498;28;20730;-82
2021/03/17 04:09:49;;;;;;;1.80;0.30;;;;;;;;;;2115025;28;20398;-82
2021/03/17 04:10:57;;;;;;;2.35;0.70;;;;;;;;;;2115214;28;20398;-82
2021/03/17 04:12:01;;;;;;;3.17;0.20;;;;;;;;;;2118602;28;20449;-82
2021/03/17 04:13:06;;;;;;;2.33;0.20;;;;;;;;;;2116163;28;20405;-82
2021/03/17 04:14:09;;;;;;;3.75;0.55;;;;;;;;;;2115703;28;20477;-82
2021/03/17 04:15:28;;;;;;;3.25;0.40;;;;;;;;;;2115238;28;20386;-82
2021/03/17 04:16:32;;;;;;;2.05;0.20;;;;;;;;;;2108992;28;20846;-82
2021/03/17 04:18:00;;;;;;;3.50;0.30;;;;;;;;;;2107362;28;20550;-82
2021/03/17 04:19:02;;;;;;;2.13;0.30;;;;;;;;;;2115259;28;20402;-82
2021/03/17 04:20:13;;;;;;;1.63;0.30;;;;;;;;;;2115395;28;20436;-82
2021/03/17 04:21:25;;;;;;;2.17;0.30;;;;;;;;;;2115250;28;20398;-81
2021/03/17 04:22:29;;;;;;;1.70;0.20;;;;;;;;;;2115000;28;20447;-83
2021/03/17 04:23:33;;;;;;;2.20;0.25;;;;;;;;;;2115400;28;20417;-82
2021/03/17 04:24:38;;;;;;;1.08;0.30;;;;;;;;;;2115653;28;20475;-82
2021/03/17 04:25:44;;;;;;;2.00;0.20;;;;;;;;;;2115788;28;20874;-82
2021/03/17 04:26:48;;;;;;;1.25;0.40;;;;;;;;;;2108375;28;20388;-82
2021/03/17 04:27:51;;;;;;;1.90;0.35;;;;;;;;;;2108999;28;20407;-82
2021/03/17 04:28:54;;;;;;;3.08;0.30;;;;;;;;;;2109005;28;20431;-82
2021/03/17 04:29:56;;;;;;;2.50;0.70;;;;;;;;;;2101302;28;20435;-82
2021/03/17 04:31:00;;;;;;;5.25;0.30;;;;;;;;;;2101609;28;20528;-83
2021/03/17 04:32:02;;;;;;;3.15;0.30;;;;;;;;;;2111629;28;20468;-82
2021/03/17 04:33:04;;;;;;;1.33;0.28;;;;;;;;;;2114439;28;20425;-83
2021/03/17 04:34:07;;;;;;;3.40;0.30;;;;;;;;;;2106242;28;20413;-82
2021/03/17 04:35:10;;;;;;;5.03;0.80;;;;;;;;;;2112793;28;20421;-81
2021/03/17 04:36:13;;;;;;;3.13;0.47;;;;;;;;;;2112507;28;20391;-82
2021/03/17 04:37:16;;;;;;;3.80;0.70;;;;;;;;;;2114446;28;20402;-82
2021/03/17 04:38:17;;;;;;;2.75;0.60;;;;;;;;;;2115297;28;20717;-82
2021/03/17 04:39:19;;;;;;;2.30;0.68;;;;;;;;;;2112870;28;20420;-82
2021/03/17 04:40:23;;;;;;;4.68;0.40;;;;;;;;;;2119148;28;20397;-82
2021/03/17 04:41:25;;;;;;;3.50;0.40;;;;;;;;;;2121108;28;20398;-83
2021/03/17 04:42:28;;;;;;;4.43;0.80;;;;;;;;;;2108375;28;20434;-82
2021/03/17 04:43:29;;;;;;;5.97;0.40;;;;;;;;;;2115829;28;20487;-83
2021/03/17 04:44:32;;;;;;;3.50;0.50;;;;;;;;;;2116761;28;20428;-83
2021/03/17 04:45:54;;;;;;;3.50;0.60;;;;;;;;;;2116882;28;20425;-83
2021/03/17 04:46:56;;;;;;;7.85;0.98;;;;;;;;;;2115167;28;20450;-82
2021/03/17 04:47:58;;;;;;;7.30;0.90;;;;;;;;;;2114634;28;20707;-82
2021/03/17 04:49:01;;;;;;;3.67;0.50;;;;;;;;;;2114716;28;20432;-82
2021/03/17 04:50:03;;;;;;;4.57;0.50;;;;;;;;;;2106548;28;20411;-82
2021/03/17 04:51:07;;;;;;;4.18;0.55;;;;;;;;;;2106817;28;20486;-81
2021/03/17 04:52:10;;;;;;;5.05;0.57;;;;;;;;;;2114607;28;20437;-82
2021/03/17 04:53:12;;;;;;;6.30;0.70;;;;;;;;;;2114566;28;20436;-81
2021/03/17 04:54:13;;;;;;;5.18;0.70;;;;;;;;;;2106214;28;20818;-81
2021/03/17 04:55:15;;;;;;;5.72;1.30;;;;;;;;;;2114627;28;20421;-82
2021/03/17 04:56:19;;;;;;;3.97;0.60;;;;;;;;;;2115482;28;20413;-82
2021/03/17 04:57:25;;;;;;;7.28;0.90;;;;;;;;;;2114537;28;20741;-82
2021/03/17 04:58:28;;;;;;;5.90;0.70;;;;;;;;;;2107181;28;20447;-82
2021/03/17 04:59:35;;;;;;;7.45;0.70;;;;;;;;;;2114529;28;20394;-81
2021/03/17 05:00:38;;;;;;;4.80;0.90;;;;;;;;;;2114495;28;20394;-82
2021/03/17 05:01:42;;;;;;;8.48;0.93;;;;;;;;;;2114381;28;20401;-82
2021/03/17 05:03:04;;;;;;;8.23;0.90;;;;;;;;;;2114967;28;20802;-82
2021/03/17 05:04:06;;;;;;;7.75;1.30;;;;;;;;;;2114820;28;20841;-82
2021/03/17 05:05:10;;;;;;;8.32;1.25;;;;;;;;;;2106263;28;20846;-82
2021/03/17 05:06:12;;;;;;;8.90;0.80;;;;;;;;;;2106834;28;20537;-82
2021/03/17 05:07:14;;;;;;;5.88;1.10;;;;;;;;;;2106235;28;20404;-82
2021/03/17 05:08:17;;;;;;;11.73;1.40;;;;;;;;;;2114556;28;20485;-82
2021/03/17 05:09:19;;;;;;;7.32;0.95;;;;;;;;;;2115151;28;20425;-82
2021/03/17 05:10:22;;;;;;;9.13;1.05;;;;;;;;;;2114813;28;20829;-81
2021/03/17 05:11:24;;;;;;;7.25;1.10;;;;;;;;;;2098093;28;20956;-81
2021/03/17 05:12:25;;;;;;;7.40;1.10;;;;;;;;;;2106710;28;20580;-82
2021/03/17 05:13:26;;;;;;;6.60;0.80;;;;;;;;;;2124947;28;20388;-82
2021/03/17 05:14:28;;;;;;;9.48;1.13;;;;;;;;;;2108379;28;20391;-82
2021/03/17 05:15:30;;;;;;;8.93;0.75;;;;;;;;;;2097978;28;20408;-82
2021/03/17 05:16:35;;;;;;;5.75;0.82;;;;;;;;;;2106627;28;20412;-82
2021/03/17 05:17:38;;;;;;;4.93;0.65;;;;;;;;;;2106627;28;20874;-82
2021/03/17 05:18:40;;;;;;;6.03;0.73;;;;;;;;;;2114476;28;20412;-81
2021/03/17 05:19:42;;;;;;;7.95;0.82;;;;;;;;;;2106347;28;20478;-82
2021/03/17 05:20:48;;;;;;;6.88;0.90;;;;;;;;;;2098444;28;20396;-82
2021/03/17 05:21:49;;;;;;;7.05;0.95;;;;;;;;;;2114502;28;20760;-82
2021/03/17 05:22:52;;;;;;;7.43;0.52;;;;;;;;;;2115155;28;20413;-81
2021/03/17 05:23:56;;;;;;;5.57;0.80;;;;;;;;;;2114498;28;20401;-82
2021/03/17 05:24:57;;;;;;;6.55;0.40;;;;;;;;;;2106678;28;20427;-82
2021/03/17 05:26:00;;;;;;;5.45;0.98;;;;;;;;;;2106268;28;20490;-82
2021/03/17 05:27:05;;;;;;;5.93;0.65;;;;;;;;;;2106326;28;20415;-82
2021/03/17 05:28:07;;;;;;;4.55;0.70;;;;;;;;;;2114672;28;20434;-82
2021/03/17 05:29:09;;;;;;;8.13;0.80;;;;;;;;;;2115330;28;20397;-82
2021/03/17 05:30:12;;;;;;;6.78;0.55;;;;;;;;;;2114658;28;20394;-82
2021/03/17 05:31:16;;;;;;;4.18;0.70;;;;;;;;;;2114762;28;20489;-82
2021/03/17 05:32:17;;;;;;;5.65;0.90;;;;;;;;;;2114528;28;20404;-82
2021/03/17 05:33:25;;;;;;;6.93;1.05;;;;;;;;;;2115178;28;20516;-82
2021/03/17 05:34:26;;;;;;;4.55;0.68;;;;;;;;;;2122610;28;20400;-82
2021/03/17 05:35:28;;;;;;;6.60;0.80;;;;;;;;;;2115822;28;20748;-82
2021/03/17 05:36:31;;;;;;;4.22;0.65;;;;;;;;;;2115180;28;20394;-82
2021/03/17 05:37:32;;;;;;;7.20;0.90;;;;;;;;;;2115973;28;20872;-82
2021/03/17 05:38:33;;;;;;;7.40;0.70;;;;;;;;;;2118125;28;20429;-81
2021/03/17 05:39:34;;;;;;;6.13;0.93;;;;;;;;;;2121456;28;20422;-82
2021/03/17 05:40:36;;;;;;;5.10;0.82;;;;;;;;;;2117426;28;20394;-83
2021/03/17 05:41:38;;;;;;;3.85;1.00;;;;;;;;;;2117423;28;20912;-82
2021/03/17 05:42:41;;;;;;;6.80;0.68;;;;;;;;;;2111849;28;20498;-82
2021/03/17 05:43:42;;;;;;;3.55;0.47;;;;;;;;;;2120953;27;20402;-82
2021/03/17 05:44:43;;;;;;;5.78;0.77;;;;;;;;;;2121324;28;20876;-83
2021/03/17 05:45:46;;;;;;;7.70;0.90;;;;;;;;;;2104410;28;20447;-83
2021/03/17 05:46:49;;;;;;;5.95;1.10;;;;;;;;;;2097690;28;20426;-82
2021/03/17 05:47:51;;;;;;;6.47;0.75;;;;;;;;;;2114376;28;20456;-83
2021/03/17 05:48:54;;;;;;;6.30;0.77;;;;;;;;;;2122718;28;20469;-82
2021/03/17 05:49:56;;;;;;;8.95;1.10;;;;;;;;;;2119317;28;20402;-82
2021/03/17 05:50:57;;;;;;;7.53;1.27;;;;;;;;;;2116919;28;20463;-83
2021/03/17 05:51:59;;;;;;;4.75;0.50;;;;;;;;;;2108262;28;20403;-83
2021/03/17 05:53:00;;;;;;;4.03;0.70;;;;;;;;;;2116396;28;20396;-83
2021/03/17 05:54:02;;;;;;;5.80;0.70;;;;;;;;;;2107647;28;20395;-82
2021/03/17 05:55:03;;;;;;;3.88;0.68;;;;;;;;;;2091051;28;20731;-82
2021/03/17 05:56:05;;;;;;;6.40;0.63;;;;;;;;;;2107640;28;20399;-82
2021/03/17 05:57:06;;;;;;;8.93;1.25;;;;;;;;;;2115771;28;20846;-82
2021/03/17 05:58:08;;;;;;;6.22;0.70;;;;;;;;;;2116307;28;20877;-82
2021/03/17 05:59:09;;;;;;;6.97;0.80;;;;;;;;;;2116009;28;20815;-83
2021/03/17 06:00:16;;;;;;;5.03;1.10;;;;;;;;;;2107871;28;20763;-83
2021/03/17 06:01:18;;;;;;;4.70;0.90;;;;;;;;;;2116655;27;20433;-83
2021/03/17 06:02:21;;;;;;;7.20;1.00;;;;;;;;;;2123917;27;20490;-83
2021/03/17 06:03:24;;;;;;;4.32;0.70;;;;;;;;;;2116492;28;20425;-82
2021/03/17 06:04:26;;;;;;;5.07;0.85;;;;;;;;;;2116618;28;20396;-83
2021/03/17 06:05:28;;;;;;;8.18;0.55;;;;;;;;;;2115921;28;20402;-82
2021/03/17 06:06:32;;;;;;;6.03;1.00;;;;;;;;;;2107743;28;20762;-82
2021/03/17 06:07:51;;;;;;;3.97;0.60;;;;;;;;;;2111781;28;20423;-82
2021/03/17 06:08:58;;;;;;;5.97;0.73;;;;;;;;;;2116417;28;20411;-82
2021/03/17 06:10:02;;;;;;;5.90;1.00;;;;;;;;;;2121192;28;20398;-82
2021/03/17 06:11:07;;;;;;;3.92;0.32;;;;;;;;;;2121264;27;20437;-83
2021/03/17 06:12:10;;;;;;;6.60;1.30;;;;;;;;;;2111615;28;20400;-83
2021/03/17 06:13:14;;;;;;;4.70;0.57;;;;;;;;;;2112871;27;20403;-82
2021/03/17 06:14:18;;;;;;;4.15;0.63;;;;;;;;;;2129337;27;20410;-82
2021/03/17 06:15:23;;;;;;;1.90;0.45;;;;;;;;;;2121360;28;20482;-82
2021/03/17 06:16:27;;;;;;;3.65;0.80;;;;;;;;;;2110623;28;20400;-82
2021/03/17 06:17:30;;;;;;;5.07;0.60;;;;;;;;;;2110639;28;20399;-82
2021/03/17 06:18:39;;;;;;;4.82;0.65;;;;;;;;;;2119199;28;20527;-81
2021/03/17 06:19:44;;;;;;;3.05;0.32;;;;;;;;;;2116915;28;20753;-81
2021/03/17 06:20:48;;;;;;;8.07;0.57;;;;;;;;;;2117459;28;20382;-82
2021/03/17 06:21:49;;;;;;;4.95;0.47;;;;;;;;;;2117441;28;20405;-82
2021/03/17 06:22:52;;;;;;;3.88;0.70;;;;;;;;;;2109234;28;20493;-82
2021/03/17 06:23:55;;;;;;;4.53;0.70;;;;;;;;;;2117279;28;20915;-82